Kapaa, Hawaii
Current Conditions -  °F | °C
As of 8:53 PM on Saturday 25 Oct 2014 (Local Time) from PHLI Reporting Station
Few Clouds Few Clouds  
Wind Chill: 79°   Ceiling: Unl
Heat Index: 82°   Visibility: 10mi
Dew Point: 72°   Wind: 12mph
Humidity: 79%   Direction: 80°E
Pressure: 30.05"   Gusts: NA
Location:  22.08°N, 159.31°W
Report Text: PHLI 260653Z 08010KT 10SM FEW021 26/22 A3005 RMK AO2 SLP174 T02610222
Loading
Personal Weather Stations






























Interactive Weather Map
Tropical Storm Tracking
New forecast layout! Learn more

10-Day Weather Forecast

Advertisements
Track Severe Weather on mobile